バンギ の空港の天気 - METARとTAF

バンギ・ムポコ国際空港 ( FEFF / BGF ) - 中央アフリカ バンギ
飛行場実況気象(Metar)
観測時間05/28 21:00 WAT (05/28 20:00 UTC)
風向・風速静穏 0m/s
視程8000m
天気現象
少しの雲 雲底高度 300m
気温24℃
湿度78%
気圧1012hPa
METARFEFF 282000Z 00000KT 8000 FEW010 24/20 Q1012 NOSIG
過去の天気等 Google飛行場航空写真 Wunderground天気予報

過去48時間のMETAR

飛行場予報(TAF)
発表時間: 5/28 18:00 WAT (5/28 17:00 UTC)
予報対象時間: 28日19時 WAT ~ 30日1時 WAT
風向・風速南南西 2m/s
視程8000m
少しの雲 雲底高度 400m
少しの積乱雲 雲底高度 1010m
28日21時 WAT ~ 28日23時 WAT に徐々に
風向・風速不定 2m/s
なし
少しの雲 雲底高度 300m
29日4時 WAT ~ 29日6時 WAT に一時的に
視程4000m
天気現象もや
全天の4割程度の雲 雲底高度 120m
29日10時 WAT から
風向・風速南西 3m/s
視程10km以上
全天の4割程度の雲 雲底高度 700m
TAF FEFF 281700Z 2818/2924 20004KT 8000 FEW013 FEW033CB
BECMG 2820/2822 VRB03KT NSC FEW010
TEMPO 2903/2905 4000 BR SCT004
FM290900 22006KT 9999 SCT023